Time;durP1;ratioP1;P1;durP2;ratioP2;P2;SDS_P1;SDS_P2;PMS_P1;PMS_P2;Temp;Humidity;BMP_temperature;BMP_pressure;BME280_temperature;BME280_humidity;BME280_pressure;Samples;Min_cycle;Max_cycle;Signal;HPM_P1;HPM_P2
2022/10/27 00:00:47;;;;;;;7.57;5.63;;;14.20;99.90;;;;;;5107494;28;20480;-68
2022/10/27 00:03:17;;;;;;;6.30;5.70;;;14.20;99.90;;;;;;5106988;28;20453;-68
2022/10/27 00:05:44;;;;;;;7.97;5.93;;;14.20;99.90;;;;;;5108234;28;20937;-69
2022/10/27 00:08:14;;;;;;;6.03;5.40;;;14.10;99.90;;;;;;5107541;28;20453;-69
2022/10/27 00:10:43;;;;;;;6.27;5.40;;;14.10;99.90;;;;;;5107430;28;20473;-69
2022/10/27 00:13:11;;;;;;;8.00;5.90;;;14.10;99.90;;;;;;5106570;28;20909;-69
2022/10/27 00:15:38;;;;;;;8.57;5.33;;;14.00;99.90;;;;;;5107422;28;20449;-69
2022/10/27 00:18:08;;;;;;;7.90;6.20;;;14.10;99.90;;;;;;5107929;28;20445;-70
2022/10/27 00:20:37;;;;;;;8.33;6.23;;;14.00;99.90;;;;;;5107094;28;20449;-70
2022/10/27 00:23:04;;;;;;;9.93;5.47;;;14.00;99.90;;;;;;5107355;28;20449;-69
2022/10/27 00:25:30;;;;;;;7.60;5.40;;;14.00;99.90;;;;;;5107204;28;20481;-69
2022/10/27 00:27:57;;;;;;;7.33;5.93;;;14.00;99.90;;;;;;5106955;28;20568;-69
2022/10/27 00:30:24;;;;;;;7.53;5.30;;;13.90;99.90;;;;;;5106417;28;20571;-69
2022/10/27 00:32:51;;;;;;;10.63;5.97;;;13.90;99.90;;;;;;5106505;28;20552;-68
2022/10/27 00:35:18;;;;;;;8.30;6.10;;;13.90;99.90;;;;;;5106654;28;20464;-69
2022/10/27 00:37:46;;;;;;;7.50;4.97;;;14.00;99.90;;;;;;5106390;28;20456;-69
2022/10/27 00:40:13;;;;;;;7.00;5.67;;;13.90;99.90;;;;;;5110421;28;20604;-68
2022/10/27 00:42:40;;;;;;;11.17;6.40;;;13.90;99.90;;;;;;5111676;28;20488;-69
2022/10/27 00:45:08;;;;;;;7.43;5.80;;;13.90;99.90;;;;;;5111881;28;20489;-68
2022/10/27 00:47:37;;;;;;;6.47;5.80;;;13.80;99.90;;;;;;5111952;28;20500;-70
2022/10/27 00:50:08;;;;;;;5.90;5.30;;;13.80;99.90;;;;;;5111470;28;20484;-70
2022/10/27 00:52:39;;;;;;;10.70;5.60;;;13.80;99.90;;;;;;5111685;28;20441;-69
2022/10/27 00:55:12;;;;;;;9.17;5.30;;;13.80;99.90;;;;;;5112907;28;20445;-69
2022/10/27 00:57:40;;;;;;;5.73;5.13;;;13.80;99.90;;;;;;5112636;28;20429;-69
2022/10/27 01:00:08;;;;;;;10.53;5.97;;;13.80;99.90;;;;;;5112128;28;20540;-69
2022/10/27 01:02:36;;;;;;;6.93;5.27;;;13.80;99.90;;;;;;5111701;28;20513;-70
2022/10/27 01:05:08;;;;;;;6.90;5.37;;;13.80;99.90;;;;;;5109977;28;20540;-69
2022/10/27 01:07:35;;;;;;;6.97;6.10;;;13.80;99.90;;;;;;5113558;28;20489;-69
2022/10/27 01:10:03;;;;;;;14.23;6.53;;;13.80;99.90;;;;;;5112525;28;20524;-69
2022/10/27 01:12:32;;;;;;;8.47;6.13;;;13.70;99.90;;;;;;5110434;28;20473;-69
2022/10/27 01:14:59;;;;;;;8.43;6.00;;;13.70;99.90;;;;;;5109995;28;20476;-69
2022/10/27 01:17:39;;;;;;;10.17;5.90;;;13.70;99.90;;;;;;5109872;28;20485;-69
2022/10/27 01:20:40;;;;;;;6.50;5.80;;;13.70;99.90;;;;;;5109662;28;20516;-69
2022/10/27 01:23:14;;;;;;;10.10;5.70;;;13.70;99.90;;;;;;5109619;28;20480;-68
2022/10/27 01:26:12;;;;;;;7.00;6.23;;;13.70;99.90;;;;;;5092939;28;20502;-68
2022/10/27 01:29:16;;;;;;;8.33;5.90;;;13.70;99.90;;;;;;5110240;28;20493;-69
2022/10/27 01:31:51;;;;;;;6.80;6.10;;;13.70;99.90;;;;;;5110388;28;20824;-69
2022/10/27 01:34:24;;;;;;;6.23;5.50;;;13.70;99.90;;;;;;5109684;28;20433;-69
2022/10/27 01:36:55;;;;;;;6.30;5.77;;;13.70;99.90;;;;;;5109568;28;20430;-69
2022/10/27 01:39:29;;;;;;;9.73;6.17;;;13.70;99.90;;;;;;5108814;28;20458;-69
2022/10/27 01:42:01;;;;;;;7.90;6.10;;;13.70;99.90;;;;;;5109122;28;20448;-69
2022/10/27 01:44:31;;;;;;;17.43;6.50;;;13.70;99.90;;;;;;5109447;28;20460;-69
2022/10/27 01:47:01;;;;;;;8.20;5.87;;;13.70;99.90;;;;;;5109757;28;20437;-68
2022/10/27 01:49:35;;;;;;;8.47;7.00;;;13.70;99.90;;;;;;5108844;28;20446;-69
2022/10/27 01:52:05;;;;;;;7.60;6.27;;;13.70;99.90;;;;;;5110155;28;20434;-69
2022/10/27 01:54:33;;;;;;;7.40;5.70;;;13.70;99.90;;;;;;5108891;28;20449;-68
2022/10/27 01:57:13;;;;;;;9.20;6.97;;;13.70;99.90;;;;;;5108686;28;20517;-68
2022/10/27 01:59:54;;;;;;;7.00;5.87;;;13.70;99.90;;;;;;5108410;28;20433;-68
2022/10/27 02:02:28;;;;;;;7.90;6.00;;;13.70;99.90;;;;;;5109149;28;20850;-70
2022/10/27 02:05:04;;;;;;;6.97;6.27;;;13.70;99.90;;;;;;5108801;28;20436;-69
2022/10/27 02:07:42;;;;;;;7.53;5.80;;;13.70;99.90;;;;;;5108201;28;20433;-69
2022/10/27 02:10:13;;;;;;;7.17;5.83;;;13.70;99.90;;;;;;5109820;28;20461;-69
2022/10/27 02:12:42;;;;;;;7.90;6.77;;;13.70;99.90;;;;;;5109289;28;20444;-69
2022/10/27 02:15:19;;;;;;;6.97;6.27;;;13.70;99.90;;;;;;5110018;28;20457;-69
2022/10/27 02:17:51;;;;;;;9.90;6.50;;;13.70;99.90;;;;;;5110903;28;20470;-69
2022/10/27 02:20:23;;;;;;;11.60;6.63;;;13.70;99.90;;;;;;5111354;28;20500;-69
2022/10/27 02:22:53;;;;;;;6.97;6.27;;;13.70;99.90;;;;;;5110974;28;20434;-70
2022/10/27 02:25:23;;;;;;;7.87;6.20;;;13.70;99.90;;;;;;5110903;28;20442;-70
2022/10/27 02:27:54;;;;;;;9.80;7.00;;;13.70;99.90;;;;;;5110174;28;20477;-69
2022/10/27 02:30:21;;;;;;;6.80;5.80;;;13.70;99.90;;;;;;5109690;28;20537;-69
2022/10/27 02:32:50;;;;;;;6.53;5.80;;;13.60;99.90;;;;;;5109464;28;20492;-69
2022/10/27 02:35:17;;;;;;;7.23;5.97;;;13.60;99.90;;;;;;5108232;28;20480;-69
2022/10/27 02:37:46;;;;;;;10.20;6.43;;;13.60;99.90;;;;;;5107801;28;20528;-69
2022/10/27 02:40:13;;;;;;;8.60;6.40;;;13.60;99.90;;;;;;5108896;28;20456;-69
2022/10/27 02:42:40;;;;;;;13.83;6.40;;;13.50;99.90;;;;;;5109703;28;20463;-68
2022/10/27 02:45:08;;;;;;;6.90;5.53;;;13.50;99.90;;;;;;5109727;28;20472;-70
2022/10/27 02:47:34;;;;;;;10.27;7.03;;;13.50;99.90;;;;;;5110138;28;20509;-69
2022/10/27 02:50:03;;;;;;;7.70;6.30;;;13.50;99.90;;;;;;5109211;28;20505;-69
2022/10/27 02:52:29;;;;;;;8.63;6.67;;;13.50;99.90;;;;;;5109358;28;20456;-69
2022/10/27 02:54:56;;;;;;;7.87;7.07;;;13.50;99.90;;;;;;5109038;28;20461;-69
2022/10/27 02:57:23;;;;;;;9.30;6.97;;;13.50;99.90;;;;;;5109432;28;20473;-69
2022/10/27 02:59:50;;;;;;;7.67;6.63;;;13.40;99.90;;;;;;5109692;28;20492;-68
2022/10/27 03:02:17;;;;;;;11.23;7.33;;;13.40;99.90;;;;;;5108093;28;20528;-69
2022/10/27 03:04:44;;;;;;;9.33;7.77;;;13.40;99.90;;;;;;5108555;28;20496;-69
2022/10/27 03:07:12;;;;;;;10.23;7.30;;;13.40;99.90;;;;;;5109485;28;20945;-69
2022/10/27 03:09:39;;;;;;;7.93;6.60;;;13.40;99.90;;;;;;5108795;28;20798;-69
2022/10/27 03:12:06;;;;;;;10.27;7.03;;;13.40;99.90;;;;;;5109276;28;20436;-69
2022/10/27 03:14:33;;;;;;;10.23;7.20;;;13.40;99.90;;;;;;5108575;28;20844;-69
2022/10/27 03:17:00;;;;;;;11.97;7.47;;;13.40;99.90;;;;;;5109426;28;20485;-69
2022/10/27 03:19:27;;;;;;;8.10;7.30;;;13.30;99.90;;;;;;5109429;28;20456;-69
2022/10/27 03:21:54;;;;;;;10.10;8.23;;;13.40;99.90;;;;;;5107993;28;20445;-69
2022/10/27 03:24:22;;;;;;;10.10;7.30;;;13.40;99.90;;;;;;5109963;28;20473;-69
2022/10/27 03:26:49;;;;;;;10.80;7.93;;;13.30;99.90;;;;;;5108504;28;20486;-69
2022/10/27 03:29:16;;;;;;;9.97;7.43;;;13.30;99.90;;;;;;5108278;28;20468;-69
2022/10/27 03:31:43;;;;;;;16.43;7.47;;;13.30;99.90;;;;;;5108177;28;20508;-69
2022/10/27 03:34:10;;;;;;;11.40;7.80;;;13.30;99.90;;;;;;5108244;28;20460;-69
2022/10/27 03:36:37;;;;;;;9.00;7.50;;;13.30;99.90;;;;;;5109919;28;20453;-69
2022/10/27 03:39:04;;;;;;;10.67;8.00;;;13.30;99.90;;;;;;5110341;28;20446;-69
2022/10/27 03:41:32;;;;;;;10.23;7.23;;;13.30;99.90;;;;;;5110139;28;20882;-69
2022/10/27 03:43:59;;;;;;;9.67;7.50;;;13.30;99.90;;;;;;5109949;28;20480;-69
2022/10/27 03:46:26;;;;;;;9.30;7.03;;;13.30;99.90;;;;;;5109704;28;20526;-70
2022/10/27 03:48:53;;;;;;;9.23;7.00;;;13.30;99.90;;;;;;5110750;28;20453;-70
2022/10/27 03:51:20;;;;;;;9.30;7.20;;;13.30;99.90;;;;;;5109818;28;20509;-69
2022/10/27 03:53:47;;;;;;;9.37;7.50;;;13.30;99.90;;;;;;5110391;28;20511;-69
2022/10/27 03:56:14;;;;;;;9.40;8.03;;;13.30;99.90;;;;;;5111027;28;20557;-69
2022/10/27 03:58:42;;;;;;;11.60;7.30;;;13.20;99.90;;;;;;5109856;28;20488;-70
2022/10/27 04:01:11;;;;;;;9.63;7.60;;;13.30;99.90;;;;;;5110588;28;20446;-70
2022/10/27 04:03:38;;;;;;;11.43;7.93;;;13.20;99.90;;;;;;5109932;28;20454;-69
2022/10/27 04:06:05;;;;;;;11.20;8.20;;;13.20;99.90;;;;;;5109296;28;20853;-69
2022/10/27 04:08:31;;;;;;;15.23;8.40;;;13.20;99.90;;;;;;5107988;28;20467;-69
2022/10/27 04:10:58;;;;;;;10.67;7.90;;;13.20;99.90;;;;;;5108054;28;20992;-69
2022/10/27 04:13:25;;;;;;;19.73;8.30;;;13.20;99.90;;;;;;5110292;28;20460;-69
2022/10/27 04:15:53;;;;;;;12.37;8.57;;;13.20;99.90;;;;;;5112570;28;20467;-69
2022/10/27 04:18:20;;;;;;;13.67;8.60;;;13.20;99.90;;;;;;5113287;28;20487;-69
2022/10/27 04:20:47;;;;;;;13.57;8.60;;;13.20;99.90;;;;;;5113908;28;20928;-69
2022/10/27 04:23:14;;;;;;;11.53;9.23;;;13.20;99.90;;;;;;5112775;28;20454;-68
2022/10/27 04:25:41;;;;;;;16.47;8.93;;;13.20;99.90;;;;;;5112969;28;20453;-69
2022/10/27 04:28:08;;;;;;;10.70;8.20;;;13.20;99.90;;;;;;5113346;28;20484;-68
2022/10/27 04:30:36;;;;;;;15.13;9.30;;;13.10;99.90;;;;;;5113163;28;20485;-69
2022/10/27 04:33:04;;;;;;;10.33;8.57;;;13.20;99.90;;;;;;5111933;28;20461;-70
2022/10/27 04:35:31;;;;;;;10.67;9.10;;;13.20;99.90;;;;;;5112377;28;20488;-68
2022/10/27 04:37:58;;;;;;;11.73;8.70;;;13.20;99.90;;;;;;5107877;28;20441;-68
2022/10/27 04:40:25;;;;;;;11.90;8.80;;;13.20;99.90;;;;;;5101834;28;20513;-69
2022/10/27 04:42:52;;;;;;;10.70;8.47;;;13.20;99.90;;;;;;5109272;28;20484;-68
2022/10/27 04:45:19;;;;;;;16.10;9.63;;;13.20;99.90;;;;;;5113250;28;20481;-69
2022/10/27 04:47:46;;;;;;;17.03;9.67;;;13.20;99.90;;;;;;5113966;28;20464;-69
2022/10/27 04:50:15;;;;;;;10.33;9.30;;;13.20;99.90;;;;;;5114433;28;20454;-69
2022/10/27 04:52:42;;;;;;;11.43;8.80;;;13.20;99.90;;;;;;5112038;28;20481;-69
2022/10/27 04:55:09;;;;;;;10.40;9.30;;;13.20;99.90;;;;;;5112898;28;20500;-69
2022/10/27 04:57:36;;;;;;;13.67;8.90;;;13.20;99.90;;;;;;5113126;28;20550;-69
2022/10/27 05:00:04;;;;;;;12.97;8.80;;;13.20;99.90;;;;;;5113224;28;20476;-69
2022/10/27 05:02:31;;;;;;;9.97;8.97;;;13.20;99.90;;;;;;5112429;28;20477;-69
2022/10/27 05:04:58;;;;;;;12.73;8.90;;;13.20;99.90;;;;;;5112794;28;20457;-68
2022/10/27 05:07:26;;;;;;;9.00;8.07;;;13.10;99.90;;;;;;5112558;28;20473;-68
2022/10/27 05:09:53;;;;;;;13.60;10.60;;;13.20;99.90;;;;;;5112732;28;20449;-68
2022/10/27 05:12:20;;;;;;;14.03;9.13;;;13.20;99.90;;;;;;5112942;28;20520;-68
2022/10/27 05:14:47;;;;;;;9.43;8.43;;;13.10;99.90;;;;;;5111504;28;20453;-68
2022/10/27 05:17:14;;;;;;;11.77;9.70;;;13.20;99.90;;;;;;5111703;28;20449;-69
2022/10/27 05:19:40;;;;;;;12.53;9.17;;;13.10;99.90;;;;;;5112797;28;20457;-69
2022/10/27 05:22:07;;;;;;;16.03;9.70;;;13.20;99.90;;;;;;5112949;28;20513;-69
2022/10/27 05:24:35;;;;;;;11.33;8.60;;;13.20;99.90;;;;;;5112235;28;20536;-71
2022/10/27 05:27:02;;;;;;;14.30;8.70;;;13.20;99.90;;;;;;5113618;28;20450;-69
2022/10/27 05:29:30;;;;;;;14.57;8.77;;;13.20;99.90;;;;;;5113011;28;20530;-69
2022/10/27 05:31:57;;;;;;;10.60;9.50;;;13.20;99.90;;;;;;5111035;28;20478;-69
2022/10/27 05:34:24;;;;;;;10.57;8.30;;;13.20;99.90;;;;;;5111493;28;20464;-69
2022/10/27 05:36:51;;;;;;;9.40;8.50;;;13.20;99.90;;;;;;5111060;28;20468;-69
2022/10/27 05:39:17;;;;;;;10.13;8.57;;;13.20;99.90;;;;;;5110053;28;20454;-69
2022/10/27 05:41:46;;;;;;;13.87;9.00;;;13.20;99.90;;;;;;5111061;28;20460;-69
2022/10/27 05:44:12;;;;;;;10.70;8.93;;;13.20;99.90;;;;;;5110371;28;20484;-69
2022/10/27 05:46:39;;;;;;;10.80;8.70;;;13.20;99.90;;;;;;5110450;28;20492;-69
2022/10/27 05:49:06;;;;;;;11.93;8.40;;;13.20;99.90;;;;;;5110852;28;20482;-69
2022/10/27 05:51:33;;;;;;;9.43;8.50;;;13.20;99.90;;;;;;5110736;28;20541;-69
2022/10/27 05:54:00;;;;;;;12.37;9.27;;;13.20;99.90;;;;;;5111527;28;20854;-69
2022/10/27 05:56:27;;;;;;;10.97;9.40;;;13.20;99.90;;;;;;5110435;28;20488;-69
2022/10/27 05:58:55;;;;;;;12.40;8.57;;;13.20;99.90;;;;;;5109235;28;20533;-69
2022/10/27 06:01:22;;;;;;;11.40;8.77;;;13.20;99.90;;;;;;5108445;28;20536;-69
2022/10/27 06:03:49;;;;;;;14.63;10.43;;;13.20;99.90;;;;;;5108556;28;20489;-69
2022/10/27 06:06:15;;;;;;;11.87;9.27;;;13.20;99.90;;;;;;5109047;28;20461;-69
2022/10/27 06:08:42;;;;;;;14.10;8.90;;;13.20;99.90;;;;;;5108617;28;20465;-70
2022/10/27 06:11:09;;;;;;;18.90;8.60;;;13.20;99.90;;;;;;5109086;28;20564;-69
2022/10/27 06:13:36;;;;;;;13.43;8.20;;;13.20;99.90;;;;;;5110544;28;20453;-69
2022/10/27 06:16:05;;;;;;;12.17;8.60;;;13.20;99.90;;;;;;5109135;28;20520;-70
2022/10/27 06:18:32;;;;;;;14.50;10.57;;;13.20;99.90;;;;;;5109875;28;20451;-70
2022/10/27 06:20:59;;;;;;;16.07;10.27;;;13.20;99.90;;;;;;5109391;28;20463;-69
2022/10/27 06:23:26;;;;;;;14.00;9.80;;;13.20;99.90;;;;;;5110387;28;20517;-69
2022/10/27 06:25:55;;;;;;;12.90;8.93;;;13.20;99.90;;;;;;5109518;28;20521;-69
2022/10/27 06:28:22;;;;;;;11.23;8.70;;;13.20;99.90;;;;;;5108095;28;20517;-70
2022/10/27 06:30:48;;;;;;;11.73;9.17;;;13.30;99.90;;;;;;5110178;28;20468;-69
2022/10/27 06:33:17;;;;;;;14.07;9.17;;;13.30;99.90;;;;;;5109105;28;20488;-69
2022/10/27 06:35:45;;;;;;;12.37;9.47;;;13.30;99.90;;;;;;5108101;28;20478;-69
2022/10/27 06:38:15;;;;;;;10.60;8.90;;;13.30;99.90;;;;;;5109365;28;20485;-70
2022/10/27 06:40:42;;;;;;;14.20;9.47;;;13.30;99.90;;;;;;5109285;28;20453;-69
2022/10/27 06:43:09;;;;;;;12.27;9.10;;;13.30;99.90;;;;;;5109869;28;20474;-69
2022/10/27 06:45:37;;;;;;;15.03;8.33;;;13.30;99.90;;;;;;5109741;28;20574;-68
2022/10/27 06:48:06;;;;;;;15.40;8.70;;;13.40;99.90;;;;;;5109500;28;20481;-69
2022/10/27 06:50:34;;;;;;;17.83;9.60;;;13.30;99.90;;;;;;5108887;28;20508;-69
2022/10/27 06:53:02;;;;;;;12.53;9.20;;;13.30;99.90;;;;;;5108703;28;20545;-69
2022/10/27 06:55:30;;;;;;;17.47;11.57;;;13.40;99.90;;;;;;5109498;28;20532;-70
2022/10/27 06:57:57;;;;;;;13.03;8.73;;;13.40;99.90;;;;;;5108980;28;20457;-68
2022/10/27 07:00:24;;;;;;;13.43;9.30;;;13.50;99.90;;;;;;5109236;28;20534;-69
2022/10/27 07:02:51;;;;;;;13.27;8.67;;;13.50;99.90;;;;;;5108493;28;20845;-69
2022/10/27 07:05:18;;;;;;;13.87;10.43;;;13.50;99.90;;;;;;5108950;28;20536;-70
2022/10/27 07:07:48;;;;;;;14.13;10.20;;;13.50;99.90;;;;;;5108676;28;20481;-70
2022/10/27 07:10:15;;;;;;;13.30;9.80;;;13.60;99.90;;;;;;5109636;28;20477;-70
2022/10/27 07:12:51;;;;;;;16.33;8.93;;;13.60;99.90;;;;;;5107469;28;20473;-69
2022/10/27 07:15:18;;;;;;;11.60;9.33;;;13.70;99.90;;;;;;5108567;28;20441;-69
2022/10/27 07:17:45;;;;;;;14.00;8.40;;;13.70;99.90;;;;;;5109124;28;20491;-69
2022/10/27 07:20:12;;;;;;;22.10;9.23;;;13.80;99.90;;;;;;5108806;28;20488;-69
2022/10/27 07:22:40;;;;;;;16.00;9.80;;;13.80;99.90;;;;;;5108367;28;20469;-69
2022/10/27 07:25:09;;;;;;;10.23;8.10;;;13.90;99.90;;;;;;5108631;28;20485;-69
2022/10/27 07:27:36;;;;;;;14.00;9.13;;;13.90;99.90;;;;;;5108535;28;20576;-69
2022/10/27 07:30:03;;;;;;;22.17;9.37;;;14.00;99.90;;;;;;5108204;28;20453;-69
2022/10/27 07:32:30;;;;;;;10.90;8.90;;;14.10;99.90;;;;;;5108319;28;20485;-69
2022/10/27 07:34:56;;;;;;;11.63;8.00;;;14.20;99.90;;;;;;5108428;28;20457;-70
2022/10/27 07:37:24;;;;;;;11.83;8.17;;;14.30;99.90;;;;;;5108600;28;20461;-70
2022/10/27 07:39:50;;;;;;;11.43;8.80;;;14.40;99.90;;;;;;5109796;28;20513;-69
2022/10/27 07:42:18;;;;;;;11.27;8.90;;;14.50;99.90;;;;;;5109234;28;20473;-69
2022/10/27 07:44:45;;;;;;;12.70;7.83;;;14.60;99.90;;;;;;5108996;28;20460;-70
2022/10/27 07:47:12;;;;;;;11.33;8.13;;;14.70;99.90;;;;;;5111212;28;20468;-69
2022/10/27 07:49:39;;;;;;;9.40;8.27;;;14.70;99.90;;;;;;5114267;28;20473;-70
2022/10/27 07:52:06;;;;;;;11.90;7.30;;;14.90;99.90;;;;;;5113395;28;20501;-70
2022/10/27 07:54:34;;;;;;;10.03;7.50;;;14.90;99.90;;;;;;5115143;28;20499;-69
2022/10/27 07:57:01;;;;;;;10.00;7.60;;;15.00;99.90;;;;;;5114425;28;20453;-69
2022/10/27 07:59:29;;;;;;;9.00;7.00;;;15.10;99.90;;;;;;5113321;28;20460;-69
2022/10/27 08:01:56;;;;;;;11.70;7.30;;;15.10;99.90;;;;;;5112915;28;20487;-69
2022/10/27 08:04:23;;;;;;;12.93;7.23;;;15.20;99.90;;;;;;5112678;28;20513;-69
2022/10/27 08:06:49;;;;;;;8.27;6.40;;;15.20;99.90;;;;;;5112099;28;20953;-70
2022/10/27 08:09:16;;;;;;;10.47;8.20;;;15.30;99.90;;;;;;5111129;28;20517;-69
2022/10/27 08:11:43;;;;;;;9.00;6.97;;;15.40;99.90;;;;;;5110895;28;20509;-68
2022/10/27 08:14:12;;;;;;;10.33;6.87;;;15.50;99.90;;;;;;5110960;28;20485;-70
2022/10/27 08:16:40;;;;;;;10.73;6.90;;;15.50;99.90;;;;;;5111482;28;20453;-70
2022/10/27 08:19:07;;;;;;;13.77;7.97;;;15.60;99.90;;;;;;5112104;28;20558;-69
2022/10/27 08:21:33;;;;;;;17.83;7.37;;;15.60;99.90;;;;;;5111607;28;20488;-69
2022/10/27 08:24:00;;;;;;;13.23;8.10;;;15.70;99.90;;;;;;5110956;28;20976;-69
2022/10/27 08:26:27;;;;;;;8.43;7.30;;;15.70;99.90;;;;;;5104094;28;20951;-70
2022/10/27 08:28:54;;;;;;;11.43;7.30;;;15.80;99.90;;;;;;5110202;28;20817;-70
2022/10/27 08:31:23;;;;;;;11.67;7.60;;;15.80;99.90;;;;;;5109888;28;20516;-70
2022/10/27 08:33:52;;;;;;;9.70;7.03;;;15.80;99.90;;;;;;5109663;28;20516;-70
2022/10/27 08:36:19;;;;;;;9.83;7.07;;;15.90;99.90;;;;;;5110825;28;20525;-70
2022/10/27 08:38:46;;;;;;;9.53;7.10;;;15.90;99.90;;;;;;5110294;28;20496;-71
2022/10/27 08:41:24;;;;;;;9.67;6.60;;;16.00;99.90;;;;;;5110975;28;20477;-72
2022/10/27 08:44:13;;;;;;;10.90;6.93;;;16.00;99.90;;;;;;5111401;28;20466;-70
2022/10/27 08:46:46;;;;;;;8.30;7.17;;;16.00;99.90;;;;;;5110482;28;20457;-70
2022/10/27 08:49:31;;;;;;;10.93;7.40;;;16.10;99.90;;;;;;5110496;28;20437;-69
2022/10/27 08:52:03;;;;;;;10.50;7.30;;;16.10;99.90;;;;;;5111160;28;20466;-70
2022/10/27 08:54:31;;;;;;;8.37;7.07;;;16.20;99.90;;;;;;5109124;28;20520;-70
2022/10/27 08:56:59;;;;;;;10.80;6.43;;;16.20;99.90;;;;;;5110642;28;20445;-70
2022/10/27 08:59:30;;;;;;;9.80;6.57;;;16.30;99.90;;;;;;5110112;28;20483;-70
2022/10/27 09:02:05;;;;;;;11.40;7.00;;;16.30;99.90;;;;;;5110355;28;20510;-71
2022/10/27 09:05:05;;;;;;;10.90;6.90;;;16.40;99.90;;;;;;5110479;28;20441;-70
2022/10/27 09:07:37;;;;;;;8.50;6.37;;;16.40;99.90;;;;;;5109750;28;20487;-71
2022/10/27 09:10:12;;;;;;;8.60;7.30;;;16.50;99.90;;;;;;5109676;28;20473;-70
2022/10/27 09:13:03;;;;;;;9.17;6.67;;;16.60;99.90;;;;;;5109389;28;20472;-70
2022/10/27 09:15:39;;;;;;;8.20;6.30;;;16.70;99.90;;;;;;5107536;28;20429;-70
2022/10/27 09:18:12;;;;;;;10.33;6.77;;;16.80;99.90;;;;;;5109051;28;20497;-70
2022/10/27 09:20:45;;;;;;;9.60;6.03;;;16.90;99.90;;;;;;5109006;28;20513;-70
2022/10/27 09:23:15;;;;;;;10.93;5.87;;;17.00;99.90;;;;;;5109900;28;20425;-69
2022/10/27 09:25:43;;;;;;;9.53;7.10;;;17.10;99.90;;;;;;5109097;28;20501;-69
2022/10/27 09:28:18;;;;;;;9.97;6.93;;;17.20;99.90;;;;;;5108981;28;20876;-69
2022/10/27 09:30:47;;;;;;;10.80;6.77;;;17.30;99.90;;;;;;5108365;28;20453;-69
2022/10/27 09:33:18;;;;;;;8.13;6.13;;;17.40;99.90;;;;;;5108567;28;20497;-69
2022/10/27 09:35:47;;;;;;;8.00;6.03;;;17.50;99.90;;;;;;5108498;28;20497;-69
2022/10/27 09:38:17;;;;;;;7.83;5.90;;;17.60;99.90;;;;;;5109191;28;20481;-69
2022/10/27 09:40:44;;;;;;;6.33;5.30;;;17.70;99.90;;;;;;5108261;28;20461;-69
2022/10/27 09:43:11;;;;;;;8.30;5.40;;;17.70;99.90;;;;;;5108333;28;20450;-69
2022/10/27 09:45:40;;;;;;;9.33;5.37;;;17.80;99.90;;;;;;5107821;28;20457;-70
2022/10/27 09:48:19;;;;;;;8.87;5.70;;;17.90;99.90;;;;;;5108860;28;20556;-70
2022/10/27 09:50:51;;;;;;;12.50;5.43;;;18.00;99.90;;;;;;5108278;28;20438;-70
2022/10/27 09:53:39;;;;;;;7.73;5.33;;;18.10;99.90;;;;;;5108042;28;20544;-70
2022/10/27 09:56:08;;;;;;;7.17;5.60;;;18.20;99.90;;;;;;5108251;28;20513;-69
2022/10/27 09:58:43;;;;;;;6.40;5.20;;;18.30;99.90;;;;;;5107453;28;20486;-69
2022/10/27 10:01:11;;;;;;;8.17;5.37;;;18.30;99.90;;;;;;5107399;28;20438;-70
2022/10/27 10:03:38;;;;;;;8.77;5.50;;;18.40;99.90;;;;;;5107785;28;20825;-69
2022/10/27 10:06:28;;;;;;;18.60;4.93;;;18.50;99.90;;;;;;5107734;28;20540;-70
2022/10/27 10:08:55;;;;;;;9.40;5.77;;;18.60;99.90;;;;;;5108154;28;20437;-70
2022/10/27 10:11:23;;;;;;;8.93;4.83;;;18.70;99.90;;;;;;5106465;28;20525;-69
2022/10/27 10:13:58;;;;;;;6.63;4.30;;;18.80;99.90;;;;;;5107414;28;20572;-69
2022/10/27 10:16:27;;;;;;;10.27;5.30;;;18.90;99.90;;;;;;5108115;28;20452;-69
2022/10/27 10:19:03;;;;;;;4.50;4.10;;;19.00;99.90;;;;;;5107675;28;20461;-69
2022/10/27 10:21:47;;;;;;;9.80;4.60;;;19.00;99.90;;;;;;5108395;28;20469;-69
2022/10/27 10:24:18;;;;;;;9.20;4.53;;;19.10;99.90;;;;;;5111155;28;20489;-70
2022/10/27 10:26:51;;;;;;;6.50;4.50;;;19.30;99.90;;;;;;5107775;28;20873;-70
2022/10/27 10:29:27;;;;;;;6.93;4.33;;;19.40;99.90;;;;;;5107224;28;20965;-69
2022/10/27 10:32:09;;;;;;;5.73;3.63;;;19.40;99.90;;;;;;5106409;28;20433;-68
2022/10/27 10:34:36;;;;;;;10.53;4.60;;;19.40;99.90;;;;;;5106817;28;20513;-68
2022/10/27 10:37:31;;;;;;;7.17;4.70;;;19.50;99.90;;;;;;5106412;28;20548;-69
2022/10/27 10:40:26;;;;;;;6.47;4.93;;;19.60;99.90;;;;;;5107264;28;20921;-70
2022/10/27 10:43:02;;;;;;;15.50;5.40;;;19.60;99.90;;;;;;5106574;28;20437;-69
2022/10/27 10:45:29;;;;;;;8.43;6.13;;;19.70;99.90;;;;;;5106780;28;20529;-70
2022/10/27 10:47:59;;;;;;;7.70;4.80;;;19.70;99.90;;;;;;5106918;28;20951;-70
2022/10/27 10:50:27;;;;;;;5.83;4.80;;;19.70;99.90;;;;;;5106565;28;20446;-69
2022/10/27 10:52:59;;;;;;;7.27;5.17;;;19.60;99.90;;;;;;5107019;28;20572;-70
2022/10/27 10:55:28;;;;;;;8.80;5.00;;;19.70;99.90;;;;;;5107149;28;20545;-70
2022/10/27 10:57:56;;;;;;;9.37;4.50;;;19.70;99.90;;;;;;5106208;28;20526;-71
2022/10/27 11:00:24;;;;;;;11.87;4.67;;;19.70;99.90;;;;;;5106558;28;20484;-70
2022/10/27 11:02:55;;;;;;;7.80;5.10;;;19.70;99.90;;;;;;5106459;28;20460;-70
2022/10/27 11:05:25;;;;;;;7.17;4.27;;;19.70;99.90;;;;;;5106173;28;20450;-70
2022/10/27 11:07:52;;;;;;;9.70;4.60;;;19.70;99.90;;;;;;5105402;28;20454;-70
2022/10/27 11:10:23;;;;;;;9.83;4.10;;;19.80;99.90;;;;;;5106715;28;20540;-70
2022/10/27 11:12:53;;;;;;;8.50;4.60;;;19.80;99.90;;;;;;5106782;28;20464;-69
2022/10/27 11:15:26;;;;;;;6.83;4.23;;;19.90;99.90;;;;;;5107358;28;20548;-70
2022/10/27 11:17:57;;;;;;;4.90;3.60;;;19.90;99.90;;;;;;5110338;28;20445;-70
2022/10/27 11:20:29;;;;;;;9.30;3.70;;;20.00;99.90;;;;;;5110105;28;20464;-70
2022/10/27 11:22:58;;;;;;;11.20;3.90;;;20.10;99.90;;;;;;5110706;28;20452;-69
2022/10/27 11:25:30;;;;;;;5.57;3.93;;;20.20;99.90;;;;;;5111438;28;20449;-69
2022/10/27 11:28:03;;;;;;;6.27;3.30;;;20.40;99.90;;;;;;5112050;28;20485;-69
2022/10/27 11:30:35;;;;;;;6.00;4.00;;;20.60;99.90;;;;;;5111440;28;20472;-70
2022/10/27 11:33:12;;;;;;;8.90;3.80;;;20.80;99.90;;;;;;5111294;28;20489;-69
2022/10/27 11:35:48;;;;;;;8.47;3.80;;;21.00;99.90;;;;;;5110394;28;20456;-69
2022/10/27 11:38:22;;;;;;;5.00;3.60;;;21.10;99.90;;;;;;5109620;28;20444;-70
2022/10/27 11:40:57;;;;;;;4.20;3.70;;;21.20;99.90;;;;;;5110794;28;20917;-70
2022/10/27 11:43:30;;;;;;;6.70;2.97;;;21.40;99.90;;;;;;5110630;28;20472;-70
2022/10/27 11:46:07;;;;;;;6.00;3.00;;;21.50;99.90;;;;;;5108966;28;20472;-70
2022/10/27 11:48:40;;;;;;;4.77;3.50;;;21.60;99.90;;;;;;5107965;28;20461;-71
2022/10/27 11:51:12;;;;;;;7.97;3.57;;;21.90;99.90;;;;;;5110659;28;20963;-70
2022/10/27 11:53:39;;;;;;;4.17;2.97;;;22.30;99.90;;;;;;5110285;28;20562;-71
2022/10/27 11:56:24;;;;;;;5.20;2.60;;;23.20;99.90;;;;;;5112308;28;20476;-70
2022/10/27 11:59:01;;;;;;;8.90;2.90;;;24.50;99.90;;;;;;5110804;28;20457;-72
2022/10/27 12:01:45;;;;;;;5.40;2.50;;;25.00;99.90;;;;;;5112507;28;20430;-70
2022/10/27 12:04:23;;;;;;;5.43;2.40;;;25.20;99.90;;;;;;5110464;28;20490;-70
2022/10/27 12:07:00;;;;;;;9.00;3.20;;;25.10;99.90;;;;;;5108645;28;20437;-70
2022/10/27 12:09:38;;;;;;;6.20;2.63;;;24.80;99.90;;;;;;5110372;28;20472;-70
2022/10/27 12:12:14;;;;;;;8.43;2.60;;;24.40;99.90;;;;;;5110606;28;20448;-70
2022/10/27 12:14:52;;;;;;;4.30;2.50;;;24.60;99.90;;;;;;5112166;28;20484;-71
2022/10/27 12:17:24;;;;;;;5.37;3.40;;;25.40;99.90;;;;;;5111756;28;20465;-70
2022/10/27 12:19:55;;;;;;;5.20;3.00;;;26.40;99.90;;;;;;5111106;28;20437;-69
2022/10/27 12:22:27;;;;;;;4.70;2.63;;;27.10;99.90;;;;;;5110479;28;20442;-70
2022/10/27 12:24:59;;;;;;;6.70;3.20;;;27.40;99.90;;;;;;5107670;28;20494;-71
2022/10/27 12:27:32;;;;;;;4.37;2.20;;;27.80;99.90;;;;;;5107420;28;20442;-69
2022/10/27 12:30:03;;;;;;;4.70;2.23;;;27.90;99.90;;;;;;5109967;28;20461;-69
2022/10/27 12:32:35;;;;;;;6.07;2.70;;;27.90;99.90;;;;;;5109279;28;20438;-70
2022/10/27 12:35:08;;;;;;;5.60;2.40;;;28.40;99.90;;;;;;5109536;28;20425;-70
2022/10/27 12:37:42;;;;;;;7.60;2.30;;;28.70;99.90;;;;;;5109138;28;20497;-70
2022/10/27 12:40:17;;;;;;;5.50;2.53;;;28.70;99.90;;;;;;5111791;28;20521;-69
2022/10/27 12:42:54;;;;;;;4.00;2.43;;;28.80;99.90;;;;;;5109768;28;20468;-70
2022/10/27 12:45:32;;;;;;;4.97;3.20;;;29.20;99.60;;;;;;5106837;28;20507;-70
2022/10/27 12:48:06;;;;;;;8.23;2.70;;;29.20;98.60;;;;;;5105733;28;20532;-70
2022/10/27 12:50:40;;;;;;;4.30;2.20;;;29.10;98.60;;;;;;5105997;28;20448;-70
2022/10/27 12:53:23;;;;;;;5.63;2.23;;;29.00;98.30;;;;;;5106319;28;20524;-71
2022/10/27 12:55:55;;;;;;;6.40;2.10;;;28.90;97.70;;;;;;5105742;28;20524;-70
2022/10/27 12:58:34;;;;;;;4.73;2.60;;;28.50;97.60;;;;;;5106132;28;20525;-71